createdAt,value
2022-09-23T00:00:07.036Z,92.40001
2022-09-23T00:05:14.747Z,92.36
2022-09-23T00:10:22.667Z,92.48
2022-09-23T00:15:28.951Z,92.66001
2022-09-23T00:20:36.104Z,92.34
2022-09-23T00:25:45.116Z,93.04
2022-09-23T00:30:52.606Z,93.59
2022-09-23T00:36:00.002Z,93.21
2022-09-23T00:41:07.752Z,93.08001
2022-09-23T00:46:15.283Z,92.74
2022-09-23T00:51:21.867Z,92.21
2022-09-23T00:56:29.619Z,92.3
2022-09-23T01:01:37.818Z,92.3
2022-09-23T01:06:44.732Z,92.58
2022-09-23T01:11:53.563Z,93.35
2022-09-23T01:17:01.669Z,93.24
2022-09-23T01:22:08.661Z,92.46
2022-09-23T01:27:15.506Z,92.82001
2022-09-23T01:32:23.333Z,92.67
2022-09-23T01:37:40.328Z,93.0
2022-09-23T01:42:47.774Z,93.28
2022-09-23T01:47:56.268Z,93.08001
2022-09-23T01:53:04.784Z,92.95
2022-09-23T01:58:12.122Z,93.0
2022-09-23T02:03:20.093Z,93.15001
2022-09-23T02:08:28.470Z,92.80001
2022-09-23T02:13:35.670Z,93.25
2022-09-23T02:18:44.043Z,93.31
2022-09-23T02:23:51.323Z,93.28
2022-09-23T02:28:59.075Z,93.30001
2022-09-23T02:34:08.055Z,93.13
2022-09-23T02:39:17.017Z,93.09
2022-09-23T02:44:24.748Z,92.98
2022-09-23T02:49:40.744Z,93.30001
2022-09-23T02:54:47.941Z,93.14
2022-09-23T02:59:55.767Z,93.24
2022-09-23T03:05:03.669Z,93.25
2022-09-23T03:10:11.452Z,93.36
2022-09-23T03:15:19.289Z,93.44001
2022-09-23T03:20:27.447Z,93.18
2022-09-23T03:25:37.363Z,93.51001
2022-09-23T03:30:45.324Z,93.58001
2022-09-23T03:35:52.129Z,93.64
2022-09-23T03:41:00.407Z,93.44001
2022-09-23T03:46:09.152Z,93.26
2022-09-23T03:51:17.369Z,93.22001
2022-09-23T03:56:24.589Z,93.33
2022-09-23T04:01:32.538Z,93.58001
2022-09-23T04:06:39.670Z,93.74
2022-09-23T04:11:46.868Z,93.9
2022-09-23T04:17:03.335Z,93.29
2022-09-23T04:22:10.811Z,93.35
2022-09-23T04:27:18.262Z,93.63
2022-09-23T04:32:25.216Z,93.22001
2022-09-23T04:37:33.013Z,93.61
2022-09-23T04:42:41.467Z,93.67
2022-09-23T04:47:48.910Z,93.62
2022-09-23T04:52:56.578Z,93.26
2022-09-23T04:58:03.130Z,93.65001
2022-09-23T05:03:11.365Z,93.7
2022-09-23T05:08:20.069Z,93.46
2022-09-23T05:13:28.457Z,93.67
2022-09-23T05:18:35.818Z,93.99
2022-09-23T05:23:44.195Z,93.77
2022-09-23T05:28:52.601Z,93.55
2022-09-23T05:34:00.574Z,93.95
2022-09-23T05:39:08.360Z,93.76
2022-09-23T05:44:15.791Z,93.78
2022-09-23T05:49:25.048Z,93.81
2022-09-23T05:54:33.373Z,94.00001
2022-09-23T05:59:40.767Z,93.87
2022-09-23T06:04:48.371Z,93.84
2022-09-23T06:09:57.777Z,94.74
2022-09-23T06:15:06.362Z,95.38
2022-09-23T06:20:14.335Z,94.38
2022-09-23T06:25:22.539Z,92.64
2022-09-23T06:30:32.259Z,92.53
2022-09-23T06:35:39.193Z,91.57001
2022-09-23T06:40:47.024Z,90.48
2022-09-23T06:45:54.818Z,90.14
2022-09-23T06:51:02.864Z,90.21
2022-09-23T06:56:11.884Z,90.13
2022-09-23T07:01:18.991Z,88.56
2022-09-23T07:06:26.337Z,89.00001
2022-09-23T07:11:34.243Z,88.2
2022-09-23T07:16:41.215Z,87.11
2022-09-23T07:21:48.941Z,87.81
2022-09-23T07:26:56.871Z,86.48001
2022-09-23T07:32:04.309Z,86.79
2022-09-23T07:37:11.966Z,86.02
2022-09-23T07:42:19.768Z,86.6
2022-09-23T07:47:26.315Z,85.45
2022-09-23T07:52:34.242Z,85.41
2022-09-23T07:57:42.510Z,85.92
2022-09-23T08:02:50.639Z,84.63
2022-09-23T08:07:57.974Z,84.33001
2022-09-23T08:13:06.068Z,84.13
2022-09-23T08:18:14.426Z,83.78
2022-09-23T08:23:22.376Z,83.34
2022-09-23T08:28:30.586Z,83.65001
2022-09-23T08:33:38.827Z,83.30001
2022-09-23T08:38:46.669Z,81.86
2022-09-23T08:43:54.340Z,82.2
2022-09-23T08:49:01.750Z,80.21
2022-09-23T08:54:09.386Z,81.0
2022-09-23T08:59:16.784Z,78.78
2022-09-23T09:04:24.064Z,78.53
2022-09-23T09:09:31.241Z,77.54
2022-09-23T09:14:38.977Z,77.85
2022-09-23T09:19:46.827Z,76.69
2022-09-23T09:24:56.335Z,76.31
2022-09-23T09:30:04.182Z,74.75
2022-09-23T09:35:12.189Z,75.28
2022-09-23T09:40:19.530Z,75.89
2022-09-23T09:45:27.657Z,75.07
2022-09-23T09:50:36.048Z,73.05
2022-09-23T09:55:43.673Z,73.56
2022-09-23T10:00:52.344Z,70.85
2022-09-23T10:06:00.118Z,70.94
2022-09-23T10:11:07.837Z,72.34
2022-09-23T10:16:16.124Z,70.0
2022-09-23T10:21:25.018Z,69.08
2022-09-23T10:26:32.520Z,69.44
2022-09-23T10:31:40.082Z,70.44
2022-09-23T10:36:48.085Z,70.12001
2022-09-23T10:41:54.757Z,68.69
2022-09-23T10:47:01.323Z,71.08
2022-09-23T10:52:09.281Z,66.62
2022-09-23T10:57:16.480Z,65.79
2022-09-23T11:02:25.235Z,65.9
2022-09-23T11:07:33.330Z,66.5
2022-09-23T11:12:39.903Z,65.46
2022-09-23T11:17:47.741Z,62.25
2022-09-23T11:22:55.513Z,63.8
2022-09-23T11:28:03.374Z,62.85
2022-09-23T11:33:11.260Z,61.53
2022-09-23T11:38:19.712Z,62.59
2022-09-23T11:43:27.768Z,60.89
2022-09-23T11:48:34.835Z,62.57
2022-09-23T11:53:42.849Z,63.34
2022-09-23T11:58:50.472Z,58.66
2022-09-23T12:03:59.704Z,57.71
2022-09-23T12:09:07.489Z,56.33
2022-09-23T12:14:13.993Z,54.96
2022-09-23T12:19:22.527Z,51.94
2022-09-23T12:24:31.543Z,51.57
2022-09-23T12:29:42.271Z,52.4
2022-09-23T12:34:49.877Z,48.43
2022-09-23T12:39:56.385Z,48.23
2022-09-23T12:45:05.182Z,49.13
2022-09-23T12:50:12.725Z,47.2
2022-09-23T12:55:21.702Z,48.32
2022-09-23T13:00:29.397Z,48.18
2022-09-23T13:05:37.560Z,46.52
2022-09-23T13:10:44.762Z,44.84
2022-09-23T13:15:52.244Z,43.53
2022-09-23T13:20:59.174Z,44.82
2022-09-23T13:26:07.173Z,43.8
2022-09-23T13:31:15.438Z,41.68
2022-09-23T13:36:23.780Z,45.34
2022-09-23T13:41:31.630Z,43.47
2022-09-23T13:46:39.026Z,42.86
2022-09-23T13:51:47.184Z,44.34
2022-09-23T13:56:54.684Z,43.85
2022-09-23T14:02:02.617Z,45.31
2022-09-23T14:07:09.743Z,44.84
2022-09-23T14:12:18.027Z,43.59
2022-09-23T14:17:25.976Z,41.24
2022-09-23T14:22:32.521Z,43.39
2022-09-23T14:27:40.899Z,43.24
2022-09-23T14:32:47.898Z,44.62
2022-09-23T14:37:56.205Z,43.51
2022-09-23T14:43:04.607Z,47.0
2022-09-23T14:48:12.143Z,48.01
2022-09-23T14:53:19.021Z,46.56
2022-09-23T14:58:26.648Z,47.34
2022-09-23T15:03:33.415Z,45.86
2022-09-23T15:08:41.836Z,47.94
2022-09-23T15:13:50.725Z,50.82
2022-09-23T15:18:59.585Z,51.52
2022-09-23T15:24:06.654Z,51.07
2022-09-23T15:29:13.857Z,52.37
2022-09-23T15:34:21.049Z,55.84
2022-09-23T15:39:28.482Z,59.63
2022-09-23T15:44:36.779Z,60.05
2022-09-23T15:49:44.935Z,60.42
2022-09-23T15:54:52.829Z,61.54
2022-09-23T15:59:59.614Z,61.83
2022-09-23T16:05:07.068Z,64.42
2022-09-23T16:10:14.598Z,64.92
2022-09-23T16:15:21.678Z,66.41
2022-09-23T16:20:27.809Z,67.19
2022-09-23T16:25:35.622Z,68.1
2022-09-23T16:30:43.096Z,69.08
2022-09-23T16:35:50.656Z,69.68
2022-09-23T16:40:58.499Z,71.27
2022-09-23T16:46:06.341Z,72.57
2022-09-23T16:51:14.554Z,74.06
2022-09-23T16:56:22.076Z,75.14
2022-09-23T17:01:30.581Z,76.27
2022-09-23T17:06:37.705Z,77.43
2022-09-23T17:11:50.029Z,78.33
2022-09-23T17:16:57.219Z,79.29
2022-09-23T17:22:05.219Z,80.39001
2022-09-23T17:27:12.273Z,80.63
2022-09-23T17:32:19.468Z,80.88
2022-09-23T17:37:27.317Z,81.45
2022-09-23T17:42:35.139Z,81.66
2022-09-23T17:47:42.337Z,82.22
2022-09-23T17:52:49.747Z,82.38
2022-09-23T17:57:56.755Z,82.87001
2022-09-23T18:03:04.774Z,82.43
2022-09-23T18:08:12.542Z,82.91
2022-09-23T18:13:19.627Z,83.12
2022-09-23T18:18:28.009Z,83.89
2022-09-23T18:23:35.992Z,84.32
2022-09-23T18:28:44.181Z,84.16
2022-09-23T18:33:50.985Z,84.23
2022-09-23T18:38:58.921Z,84.66001
2022-09-23T18:44:06.618Z,84.64
2022-09-23T18:49:13.943Z,85.53
2022-09-23T18:54:22.888Z,85.72001
2022-09-23T18:59:30.196Z,85.63
2022-09-23T19:04:37.432Z,85.58001
2022-09-23T19:09:45.136Z,86.41001
2022-09-23T19:14:53.118Z,86.17
2022-09-23T19:20:00.913Z,86.32
2022-09-23T19:25:09.326Z,86.4
2022-09-23T19:30:17.283Z,86.22001
2022-09-23T19:35:25.438Z,86.50001
2022-09-23T19:40:39.312Z,86.8
2022-09-23T19:45:48.433Z,86.98001
2022-09-23T19:51:17.758Z,87.31
2022-09-23T19:56:25.920Z,86.99
2022-09-23T20:01:32.480Z,87.26001
2022-09-23T20:06:39.681Z,87.7
2022-09-23T20:11:48.393Z,87.83
2022-09-23T20:16:56.723Z,87.69
2022-09-23T20:22:04.440Z,88.12
2022-09-23T20:27:11.636Z,87.83999
2022-09-23T20:32:18.908Z,88.2
2022-09-23T20:37:27.849Z,88.35
2022-09-23T20:42:36.373Z,88.49
2022-09-23T20:47:43.666Z,88.02
2022-09-23T20:53:06.134Z,88.36
2022-09-23T20:58:13.630Z,88.76
2022-09-23T21:03:20.756Z,88.49
2022-09-23T21:08:29.428Z,88.48001
2022-09-23T21:13:36.918Z,88.41001
2022-09-23T21:18:45.151Z,88.63
2022-09-23T21:23:52.612Z,88.73
2022-09-23T21:29:00.967Z,88.98001
2022-09-23T21:34:09.774Z,88.85
2022-09-23T21:39:17.376Z,89.19001
2022-09-23T21:44:24.594Z,89.34
2022-09-23T21:49:33.087Z,89.34
2022-09-23T21:54:41.437Z,89.3
2022-09-23T21:59:49.069Z,89.54
2022-09-23T22:05:03.370Z,89.6
2022-09-23T22:10:11.399Z,89.64
2022-09-23T22:15:17.382Z,89.85
2022-09-23T22:20:25.698Z,89.61
2022-09-23T22:25:33.678Z,89.79
2022-09-23T22:30:41.950Z,89.90001
2022-09-23T22:35:49.439Z,90.02
2022-09-23T22:40:56.315Z,89.94
2022-09-23T22:46:06.868Z,90.16001
2022-09-23T22:51:15.466Z,89.84
2022-09-23T22:56:22.672Z,90.12
2022-09-23T23:01:31.220Z,90.04001
2022-09-23T23:06:40.079Z,90.02
2022-09-23T23:11:46.831Z,90.06
2022-09-23T23:16:54.194Z,90.06
2022-09-23T23:22:01.968Z,90.09
2022-09-23T23:27:10.208Z,90.38
2022-09-23T23:32:18.717Z,90.15
2022-09-23T23:37:26.636Z,90.39001
2022-09-23T23:42:34.515Z,90.51001
2022-09-23T23:47:42.302Z,90.88
2022-09-23T23:52:50.549Z,90.77
2022-09-23T23:57:57.408Z,90.64
